sensor_id;sensor_type;location;lat;lon;timestamp;P1;durP1;ratioP1;P2;durP2;ratioP2
57832;SDS011;43667;53.036;6.740;2023-06-04T00:00:04;7.13;;;3.25;;
57832;SDS011;43667;53.036;6.740;2023-06-04T00:02:31;8.75;;;3.70;;
57832;SDS011;43667;53.036;6.740;2023-06-04T00:05:00;8.52;;;3.63;;
57832;SDS011;43667;53.036;6.740;2023-06-04T00:07:25;9.88;;;3.53;;
57832;SDS011;43667;53.036;6.740;2023-06-04T00:09:52;6.13;;;3.20;;
57832;SDS011;43667;53.036;6.740;2023-06-04T00:12:18;5.68;;;2.95;;
57832;SDS011;43667;53.036;6.740;2023-06-04T00:14:43;7.40;;;3.88;;
57832;SDS011;43667;53.036;6.740;2023-06-04T00:17:09;7.70;;;3.60;;
57832;SDS011;43667;53.036;6.740;2023-06-04T00:19:37;9.23;;;3.90;;
57832;SDS011;43667;53.036;6.740;2023-06-04T00:22:04;6.00;;;3.30;;
57832;SDS011;43667;53.036;6.740;2023-06-04T00:24:31;9.93;;;4.40;;
57832;SDS011;43667;53.036;6.740;2023-06-04T00:26:56;11.50;;;4.40;;
57832;SDS011;43667;53.036;6.740;2023-06-04T00:29:22;10.98;;;3.90;;
57832;SDS011;43667;53.036;6.740;2023-06-04T00:31:48;10.48;;;4.78;;
57832;SDS011;43667;53.036;6.740;2023-06-04T00:34:14;7.18;;;3.67;;
57832;SDS011;43667;53.036;6.740;2023-06-04T00:36:40;8.70;;;3.38;;
57832;SDS011;43667;53.036;6.740;2023-06-04T00:39:05;7.70;;;3.63;;
57832;SDS011;43667;53.036;6.740;2023-06-04T00:41:31;10.13;;;4.07;;
57832;SDS011;43667;53.036;6.740;2023-06-04T00:43:56;7.63;;;3.67;;
57832;SDS011;43667;53.036;6.740;2023-06-04T00:46:23;9.63;;;3.58;;
57832;SDS011;43667;53.036;6.740;2023-06-04T00:48:50;8.68;;;3.83;;
57832;SDS011;43667;53.036;6.740;2023-06-04T00:51:17;11.20;;;4.07;;
57832;SDS011;43667;53.036;6.740;2023-06-04T00:53:43;8.07;;;4.68;;
57832;SDS011;43667;53.036;6.740;2023-06-04T00:56:08;9.07;;;4.00;;
57832;SDS011;43667;53.036;6.740;2023-06-04T00:58:38;12.52;;;4.43;;
57832;SDS011;43667;53.036;6.740;2023-06-04T01:01:05;8.18;;;3.13;;
57832;SDS011;43667;53.036;6.740;2023-06-04T01:03:35;6.55;;;3.72;;
57832;SDS011;43667;53.036;6.740;2023-06-04T01:09:02;10.23;;;3.45;;
57832;SDS011;43667;53.036;6.740;2023-06-04T01:11:35;12.38;;;4.05;;
57832;SDS011;43667;53.036;6.740;2023-06-04T01:14:02;8.77;;;3.58;;
57832;SDS011;43667;53.036;6.740;2023-06-04T01:16:30;6.20;;;3.58;;
57832;SDS011;43667;53.036;6.740;2023-06-04T01:19:04;8.88;;;3.38;;
57832;SDS011;43667;53.036;6.740;2023-06-04T01:21:46;9.75;;;3.50;;
57832;SDS011;43667;53.036;6.740;2023-06-04T01:24:16;8.63;;;3.40;;
57832;SDS011;43667;53.036;6.740;2023-06-04T01:26:45;7.40;;;3.88;;
57832;SDS011;43667;53.036;6.740;2023-06-04T01:29:11;8.68;;;4.47;;
57832;SDS011;43667;53.036;6.740;2023-06-04T01:31:37;7.60;;;3.97;;
57832;SDS011;43667;53.036;6.740;2023-06-04T01:34:03;12.07;;;4.32;;
57832;SDS011;43667;53.036;6.740;2023-06-04T01:36:32;10.98;;;4.35;;
57832;SDS011;43667;53.036;6.740;2023-06-04T01:38:57;11.20;;;4.70;;
57832;SDS011;43667;53.036;6.740;2023-06-04T01:41:25;13.25;;;4.75;;
57832;SDS011;43667;53.036;6.740;2023-06-04T01:43:51;12.60;;;4.60;;
57832;SDS011;43667;53.036;6.740;2023-06-04T01:46:16;12.68;;;5.13;;
57832;SDS011;43667;53.036;6.740;2023-06-04T01:48:42;9.60;;;4.53;;
57832;SDS011;43667;53.036;6.740;2023-06-04T01:51:08;11.05;;;4.93;;
57832;SDS011;43667;53.036;6.740;2023-06-04T01:53:33;8.02;;;4.65;;
57832;SDS011;43667;53.036;6.740;2023-06-04T01:56:00;12.60;;;5.13;;
57832;SDS011;43667;53.036;6.740;2023-06-04T01:58:26;12.82;;;4.57;;
57832;SDS011;43667;53.036;6.740;2023-06-04T02:00:52;10.35;;;4.82;;
57832;SDS011;43667;53.036;6.740;2023-06-04T02:03:19;11.60;;;5.65;;
57832;SDS011;43667;53.036;6.740;2023-06-04T02:05:46;12.52;;;6.63;;
57832;SDS011;43667;53.036;6.740;2023-06-04T02:08:16;16.65;;;5.10;;
57832;SDS011;43667;53.036;6.740;2023-06-04T02:10:47;13.20;;;5.07;;
57832;SDS011;43667;53.036;6.740;2023-06-04T02:13:13;8.52;;;4.28;;
57832;SDS011;43667;53.036;6.740;2023-06-04T02:15:39;12.80;;;4.90;;
57832;SDS011;43667;53.036;6.740;2023-06-04T02:18:13;11.18;;;4.68;;
57832;SDS011;43667;53.036;6.740;2023-06-04T02:20:43;9.52;;;4.25;;
57832;SDS011;43667;53.036;6.740;2023-06-04T02:23:10;13.15;;;3.72;;
57832;SDS011;43667;53.036;6.740;2023-06-04T02:25:36;9.38;;;4.38;;
57832;SDS011;43667;53.036;6.740;2023-06-04T02:28:01;10.57;;;4.57;;
57832;SDS011;43667;53.036;6.740;2023-06-04T02:30:27;10.65;;;4.18;;
57832;SDS011;43667;53.036;6.740;2023-06-04T02:32:52;11.40;;;5.43;;
57832;SDS011;43667;53.036;6.740;2023-06-04T02:35:20;11.70;;;5.18;;
57832;SDS011;43667;53.036;6.740;2023-06-04T02:37:49;8.70;;;4.03;;
57832;SDS011;43667;53.036;6.740;2023-06-04T02:40:16;12.82;;;4.63;;
57832;SDS011;43667;53.036;6.740;2023-06-04T02:42:41;8.73;;;4.20;;
57832;SDS011;43667;53.036;6.740;2023-06-04T02:45:07;12.27;;;4.40;;
57832;SDS011;43667;53.036;6.740;2023-06-04T02:47:35;11.55;;;4.65;;
57832;SDS011;43667;53.036;6.740;2023-06-04T02:50:00;9.35;;;4.78;;
57832;SDS011;43667;53.036;6.740;2023-06-04T02:52:26;9.85;;;4.60;;
57832;SDS011;43667;53.036;6.740;2023-06-04T02:54:51;10.25;;;4.60;;
57832;SDS011;43667;53.036;6.740;2023-06-04T02:57:17;12.00;;;4.55;;
57832;SDS011;43667;53.036;6.740;2023-06-04T02:59:42;12.20;;;5.25;;
57832;SDS011;43667;53.036;6.740;2023-06-04T03:02:08;9.75;;;5.10;;
57832;SDS011;43667;53.036;6.740;2023-06-04T03:04:34;8.95;;;4.00;;
57832;SDS011;43667;53.036;6.740;2023-06-04T03:07:03;9.88;;;4.65;;
57832;SDS011;43667;53.036;6.740;2023-06-04T03:09:32;9.80;;;4.97;;
57832;SDS011;43667;53.036;6.740;2023-06-04T03:12:02;14.38;;;6.82;;
57832;SDS011;43667;53.036;6.740;2023-06-04T03:14:28;12.30;;;6.95;;
57832;SDS011;43667;53.036;6.740;2023-06-04T03:17:00;13.65;;;6.07;;
57832;SDS011;43667;53.036;6.740;2023-06-04T03:19:33;13.75;;;6.75;;
57832;SDS011;43667;53.036;6.740;2023-06-04T03:22:00;13.55;;;5.80;;
57832;SDS011;43667;53.036;6.740;2023-06-04T03:24:29;10.02;;;5.55;;
57832;SDS011;43667;53.036;6.740;2023-06-04T03:26:55;14.93;;;7.15;;
57832;SDS011;43667;53.036;6.740;2023-06-04T03:29:20;17.67;;;9.00;;
57832;SDS011;43667;53.036;6.740;2023-06-04T03:31:46;13.05;;;6.95;;
57832;SDS011;43667;53.036;6.740;2023-06-04T03:34:12;14.32;;;7.70;;
57832;SDS011;43667;53.036;6.740;2023-06-04T03:36:40;15.27;;;7.63;;
57832;SDS011;43667;53.036;6.740;2023-06-04T03:39:07;21.77;;;9.23;;
57832;SDS011;43667;53.036;6.740;2023-06-04T03:41:32;15.90;;;7.70;;
57832;SDS011;43667;53.036;6.740;2023-06-04T03:43:58;15.75;;;8.77;;
57832;SDS011;43667;53.036;6.740;2023-06-04T03:46:23;22.35;;;10.80;;
57832;SDS011;43667;53.036;6.740;2023-06-04T03:48:51;21.08;;;9.55;;
57832;SDS011;43667;53.036;6.740;2023-06-04T03:51:17;20.13;;;9.88;;
57832;SDS011;43667;53.036;6.740;2023-06-04T03:53:43;17.40;;;8.70;;
57832;SDS011;43667;53.036;6.740;2023-06-04T03:56:08;16.45;;;8.40;;
57832;SDS011;43667;53.036;6.740;2023-06-04T03:58:37;16.83;;;8.00;;
57832;SDS011;43667;53.036;6.740;2023-06-04T04:01:03;16.50;;;8.32;;
57832;SDS011;43667;53.036;6.740;2023-06-04T04:03:29;18.77;;;8.38;;
57832;SDS011;43667;53.036;6.740;2023-06-04T04:05:56;19.30;;;9.20;;
57832;SDS011;43667;53.036;6.740;2023-06-04T04:08:23;19.52;;;10.68;;
57832;SDS011;43667;53.036;6.740;2023-06-04T04:10:48;18.55;;;9.32;;
57832;SDS011;43667;53.036;6.740;2023-06-04T04:13:14;15.73;;;8.05;;
57832;SDS011;43667;53.036;6.740;2023-06-04T04:15:40;18.98;;;8.80;;
57832;SDS011;43667;53.036;6.740;2023-06-04T04:18:05;22.48;;;9.70;;
57832;SDS011;43667;53.036;6.740;2023-06-04T04:20:33;18.38;;;7.75;;
57832;SDS011;43667;53.036;6.740;2023-06-04T04:22:59;15.23;;;8.43;;
57832;SDS011;43667;53.036;6.740;2023-06-04T04:25:25;19.05;;;9.23;;
57832;SDS011;43667;53.036;6.740;2023-06-04T04:27:51;17.15;;;8.63;;
57832;SDS011;43667;53.036;6.740;2023-06-04T04:30:17;18.38;;;7.60;;
57832;SDS011;43667;53.036;6.740;2023-06-04T04:32:43;21.67;;;9.23;;
57832;SDS011;43667;53.036;6.740;2023-06-04T04:35:15;21.20;;;7.85;;
57832;SDS011;43667;53.036;6.740;2023-06-04T04:37:43;19.92;;;8.45;;
57832;SDS011;43667;53.036;6.740;2023-06-04T04:40:09;15.65;;;8.30;;
57832;SDS011;43667;53.036;6.740;2023-06-04T04:42:36;17.77;;;9.07;;
57832;SDS011;43667;53.036;6.740;2023-06-04T04:45:02;13.80;;;7.72;;
57832;SDS011;43667;53.036;6.740;2023-06-04T04:47:28;15.90;;;8.75;;
57832;SDS011;43667;53.036;6.740;2023-06-04T04:49:54;16.60;;;9.60;;
57832;SDS011;43667;53.036;6.740;2023-06-04T04:52:19;17.00;;;8.75;;
57832;SDS011;43667;53.036;6.740;2023-06-04T04:54:45;16.17;;;9.82;;
57832;SDS011;43667;53.036;6.740;2023-06-04T04:57:11;20.77;;;10.38;;
57832;SDS011;43667;53.036;6.740;2023-06-04T04:59:36;16.92;;;10.05;;
57832;SDS011;43667;53.036;6.740;2023-06-04T05:02:02;15.48;;;9.95;;
57832;SDS011;43667;53.036;6.740;2023-06-04T05:04:27;14.75;;;10.43;;
57832;SDS011;43667;53.036;6.740;2023-06-04T05:06:53;17.67;;;9.82;;
57832;SDS011;43667;53.036;6.740;2023-06-04T05:09:18;18.35;;;10.05;;
57832;SDS011;43667;53.036;6.740;2023-06-04T05:11:44;18.00;;;10.15;;
57832;SDS011;43667;53.036;6.740;2023-06-04T05:14:10;20.05;;;9.90;;
57832;SDS011;43667;53.036;6.740;2023-06-04T05:16:36;19.42;;;9.00;;
57832;SDS011;43667;53.036;6.740;2023-06-04T05:19:03;15.32;;;9.18;;
57832;SDS011;43667;53.036;6.740;2023-06-04T05:21:29;18.75;;;9.13;;
57832;SDS011;43667;53.036;6.740;2023-06-04T05:23:54;14.52;;;8.75;;
57832;SDS011;43667;53.036;6.740;2023-06-04T05:26:21;18.40;;;10.35;;
57832;SDS011;43667;53.036;6.740;2023-06-04T05:28:50;13.68;;;9.25;;
57832;SDS011;43667;53.036;6.740;2023-06-04T05:31:18;13.85;;;9.63;;
57832;SDS011;43667;53.036;6.740;2023-06-04T05:33:44;19.67;;;9.07;;
57832;SDS011;43667;53.036;6.740;2023-06-04T05:36:10;17.90;;;8.43;;
57832;SDS011;43667;53.036;6.740;2023-06-04T05:38:35;15.32;;;8.13;;
57832;SDS011;43667;53.036;6.740;2023-06-04T05:41:01;14.32;;;8.15;;
57832;SDS011;43667;53.036;6.740;2023-06-04T05:43:27;16.70;;;8.13;;
57832;SDS011;43667;53.036;6.740;2023-06-04T05:45:52;13.63;;;8.00;;
57832;SDS011;43667;53.036;6.740;2023-06-04T05:48:18;14.05;;;7.50;;
57832;SDS011;43667;53.036;6.740;2023-06-04T05:50:50;11.40;;;6.20;;
57832;SDS011;43667;53.036;6.740;2023-06-04T05:53:16;15.93;;;6.60;;
57832;SDS011;43667;53.036;6.740;2023-06-04T05:55:41;15.02;;;6.72;;
57832;SDS011;43667;53.036;6.740;2023-06-04T05:58:07;19.95;;;6.78;;
57832;SDS011;43667;53.036;6.740;2023-06-04T06:00:33;14.73;;;6.50;;
57832;SDS011;43667;53.036;6.740;2023-06-04T06:03:00;11.60;;;6.25;;
57832;SDS011;43667;53.036;6.740;2023-06-04T06:05:26;17.63;;;5.85;;
57832;SDS011;43667;53.036;6.740;2023-06-04T06:07:52;13.73;;;5.68;;
57832;SDS011;43667;53.036;6.740;2023-06-04T06:10:17;11.68;;;5.30;;
57832;SDS011;43667;53.036;6.740;2023-06-04T06:12:44;12.75;;;5.35;;
57832;SDS011;43667;53.036;6.740;2023-06-04T06:15:09;15.63;;;4.80;;
57832;SDS011;43667;53.036;6.740;2023-06-04T06:17:37;14.80;;;4.70;;
57832;SDS011;43667;53.036;6.740;2023-06-04T06:20:03;12.40;;;4.00;;
57832;SDS011;43667;53.036;6.740;2023-06-04T06:22:33;14.23;;;4.43;;
57832;SDS011;43667;53.036;6.740;2023-06-04T06:25:00;11.35;;;3.63;;
57832;SDS011;43667;53.036;6.740;2023-06-04T06:27:27;14.65;;;4.30;;
57832;SDS011;43667;53.036;6.740;2023-06-04T06:29:53;9.02;;;3.47;;
57832;SDS011;43667;53.036;6.740;2023-06-04T06:32:18;12.38;;;3.85;;
57832;SDS011;43667;53.036;6.740;2023-06-04T06:34:44;13.57;;;3.33;;
57832;SDS011;43667;53.036;6.740;2023-06-04T06:37:10;9.52;;;3.20;;
57832;SDS011;43667;53.036;6.740;2023-06-04T06:39:35;10.90;;;2.90;;
57832;SDS011;43667;53.036;6.740;2023-06-04T06:42:01;9.23;;;3.17;;
57832;SDS011;43667;53.036;6.740;2023-06-04T06:44:26;12.90;;;3.08;;
57832;SDS011;43667;53.036;6.740;2023-06-04T06:46:52;13.73;;;3.30;;
57832;SDS011;43667;53.036;6.740;2023-06-04T06:49:17;10.52;;;3.10;;
57832;SDS011;43667;53.036;6.740;2023-06-04T06:51:43;14.60;;;3.50;;
57832;SDS011;43667;53.036;6.740;2023-06-04T06:54:09;13.95;;;3.05;;
57832;SDS011;43667;53.036;6.740;2023-06-04T06:56:35;13.07;;;3.15;;
57832;SDS011;43667;53.036;6.740;2023-06-04T06:59:01;11.20;;;3.10;;
57832;SDS011;43667;53.036;6.740;2023-06-04T07:01:26;11.13;;;3.38;;
57832;SDS011;43667;53.036;6.740;2023-06-04T07:03:52;16.25;;;3.70;;
57832;SDS011;43667;53.036;6.740;2023-06-04T07:06:18;10.65;;;2.97;;
57832;SDS011;43667;53.036;6.740;2023-06-04T07:08:43;12.10;;;3.30;;
57832;SDS011;43667;53.036;6.740;2023-06-04T07:11:09;10.80;;;3.03;;
57832;SDS011;43667;53.036;6.740;2023-06-04T07:13:37;10.52;;;2.78;;
57832;SDS011;43667;53.036;6.740;2023-06-04T07:16:03;7.78;;;3.03;;
57832;SDS011;43667;53.036;6.740;2023-06-04T07:18:32;16.67;;;3.40;;
57832;SDS011;43667;53.036;6.740;2023-06-04T07:20:58;7.85;;;2.45;;
57832;SDS011;43667;53.036;6.740;2023-06-04T07:23:24;8.38;;;2.83;;
57832;SDS011;43667;53.036;6.740;2023-06-04T07:25:49;8.70;;;2.85;;
57832;SDS011;43667;53.036;6.740;2023-06-04T07:28:15;12.82;;;2.97;;
57832;SDS011;43667;53.036;6.740;2023-06-04T07:30:41;9.38;;;2.33;;
57832;SDS011;43667;53.036;6.740;2023-06-04T07:33:06;9.43;;;2.30;;
57832;SDS011;43667;53.036;6.740;2023-06-04T07:35:32;13.13;;;2.50;;
57832;SDS011;43667;53.036;6.740;2023-06-04T07:37:58;12.52;;;3.72;;
57832;SDS011;43667;53.036;6.740;2023-06-04T07:40:23;10.23;;;2.58;;
57832;SDS011;43667;53.036;6.740;2023-06-04T07:42:49;8.45;;;2.38;;
57832;SDS011;43667;53.036;6.740;2023-06-04T07:45:15;8.18;;;2.00;;
57832;SDS011;43667;53.036;6.740;2023-06-04T07:47:41;8.82;;;2.20;;
57832;SDS011;43667;53.036;6.740;2023-06-04T07:50:08;9.43;;;2.40;;
57832;SDS011;43667;53.036;6.740;2023-06-04T07:52:36;6.85;;;1.77;;
57832;SDS011;43667;53.036;6.740;2023-06-04T07:55:01;7.45;;;1.75;;
57832;SDS011;43667;53.036;6.740;2023-06-04T07:57:28;11.35;;;2.05;;
57832;SDS011;43667;53.036;6.740;2023-06-04T07:59:54;6.78;;;1.63;;
57832;SDS011;43667;53.036;6.740;2023-06-04T08:02:19;5.88;;;1.75;;
57832;SDS011;43667;53.036;6.740;2023-06-04T08:04:45;8.98;;;1.90;;
57832;SDS011;43667;53.036;6.740;2023-06-04T08:07:11;5.53;;;1.27;;
57832;SDS011;43667;53.036;6.740;2023-06-04T08:09:37;6.22;;;1.52;;
57832;SDS011;43667;53.036;6.740;2023-06-04T08:12:03;8.18;;;1.95;;
57832;SDS011;43667;53.036;6.740;2023-06-04T08:14:29;8.88;;;1.75;;
57832;SDS011;43667;53.036;6.740;2023-06-04T08:16:59;5.32;;;1.30;;
57832;SDS011;43667;53.036;6.740;2023-06-04T08:19:25;5.28;;;1.40;;
57832;SDS011;43667;53.036;6.740;2023-06-04T08:21:51;4.97;;;1.30;;
57832;SDS011;43667;53.036;6.740;2023-06-04T08:24:16;4.25;;;1.67;;
57832;SDS011;43667;53.036;6.740;2023-06-04T08:26:42;4.55;;;1.35;;
57832;SDS011;43667;53.036;6.740;2023-06-04T08:29:08;7.50;;;1.40;;
57832;SDS011;43667;53.036;6.740;2023-06-04T08:31:33;6.65;;;1.30;;
57832;SDS011;43667;53.036;6.740;2023-06-04T08:33:59;12.98;;;1.52;;
57832;SDS011;43667;53.036;6.740;2023-06-04T08:36:25;6.90;;;1.60;;
57832;SDS011;43667;53.036;6.740;2023-06-04T08:38:51;5.43;;;1.05;;
57832;SDS011;43667;53.036;6.740;2023-06-04T08:43:56;5.25;;;1.20;;
57832;SDS011;43667;53.036;6.740;2023-06-04T08:46:23;3.40;;;1.15;;
57832;SDS011;43667;53.036;6.740;2023-06-04T08:48:49;5.35;;;1.00;;
57832;SDS011;43667;53.036;6.740;2023-06-04T08:51:15;3.30;;;1.08;;
57832;SDS011;43667;53.036;6.740;2023-06-04T08:53:41;3.88;;;1.63;;
57832;SDS011;43667;53.036;6.740;2023-06-04T08:56:15;4.20;;;1.05;;
57832;SDS011;43667;53.036;6.740;2023-06-04T08:58:42;2.60;;;1.08;;
57832;SDS011;43667;53.036;6.740;2023-06-04T09:01:11;2.80;;;1.10;;
57832;SDS011;43667;53.036;6.740;2023-06-04T09:03:39;3.50;;;1.20;;
57832;SDS011;43667;53.036;6.740;2023-06-04T09:06:06;1.95;;;1.10;;
57832;SDS011;43667;53.036;6.740;2023-06-04T09:08:32;2.58;;;1.02;;
57832;SDS011;43667;53.036;6.740;2023-06-04T09:11:03;3.30;;;1.48;;
57832;SDS011;43667;53.036;6.740;2023-06-04T09:13:31;6.57;;;1.20;;
57832;SDS011;43667;53.036;6.740;2023-06-04T09:16:04;5.88;;;1.50;;
57832;SDS011;43667;53.036;6.740;2023-06-04T09:18:33;6.32;;;1.35;;
57832;SDS011;43667;53.036;6.740;2023-06-04T09:21:08;3.13;;;0.90;;
57832;SDS011;43667;53.036;6.740;2023-06-04T09:23:43;4.45;;;1.15;;
57832;SDS011;43667;53.036;6.740;2023-06-04T09:26:10;2.08;;;0.90;;
57832;SDS011;43667;53.036;6.740;2023-06-04T09:28:39;5.60;;;1.10;;
57832;SDS011;43667;53.036;6.740;2023-06-04T09:31:07;3.17;;;1.08;;
57832;SDS011;43667;53.036;6.740;2023-06-04T09:33:44;4.60;;;0.77;;
57832;SDS011;43667;53.036;6.740;2023-06-04T09:36:11;3.40;;;0.98;;
57832;SDS011;43667;53.036;6.740;2023-06-04T09:38:37;4.40;;;1.20;;
57832;SDS011;43667;53.036;6.740;2023-06-04T09:41:03;3.20;;;1.20;;
57832;SDS011;43667;53.036;6.740;2023-06-04T09:43:30;6.43;;;1.10;;
57832;SDS011;43667;53.036;6.740;2023-06-04T09:46:07;5.15;;;0.93;;
57832;SDS011;43667;53.036;6.740;2023-06-04T09:48:43;4.45;;;1.17;;
57832;SDS011;43667;53.036;6.740;2023-06-04T09:51:13;5.50;;;1.30;;
57832;SDS011;43667;53.036;6.740;2023-06-04T09:54:05;4.30;;;1.48;;
57832;SDS011;43667;53.036;6.740;2023-06-04T09:56:38;3.17;;;0.90;;
57832;SDS011;43667;53.036;6.740;2023-06-04T09:59:05;3.15;;;0.90;;
57832;SDS011;43667;53.036;6.740;2023-06-04T10:01:32;3.00;;;1.35;;
57832;SDS011;43667;53.036;6.740;2023-06-04T10:04:02;6.15;;;1.42;;
57832;SDS011;43667;53.036;6.740;2023-06-04T10:06:33;4.72;;;1.10;;
57832;SDS011;43667;53.036;6.740;2023-06-04T10:09:04;3.65;;;1.08;;
57832;SDS011;43667;53.036;6.740;2023-06-04T10:11:39;4.63;;;1.40;;
57832;SDS011;43667;53.036;6.740;2023-06-04T10:14:17;8.40;;;1.55;;
57832;SDS011;43667;53.036;6.740;2023-06-04T10:16:47;6.88;;;1.50;;
57832;SDS011;43667;53.036;6.740;2023-06-04T10:19:14;3.40;;;1.38;;
57832;SDS011;43667;53.036;6.740;2023-06-04T10:21:40;4.40;;;1.27;;
57832;SDS011;43667;53.036;6.740;2023-06-04T10:24:07;4.43;;;1.38;;
57832;SDS011;43667;53.036;6.740;2023-06-04T10:26:33;3.95;;;1.20;;
57832;SDS011;43667;53.036;6.740;2023-06-04T10:29:00;5.30;;;1.55;;
57832;SDS011;43667;53.036;6.740;2023-06-04T10:31:27;4.22;;;1.40;;
57832;SDS011;43667;53.036;6.740;2023-06-04T10:33:53;5.82;;;1.38;;
57832;SDS011;43667;53.036;6.740;2023-06-04T10:36:21;3.72;;;1.00;;
57832;SDS011;43667;53.036;6.740;2023-06-04T10:38:48;4.15;;;1.30;;
57832;SDS011;43667;53.036;6.740;2023-06-04T10:41:15;4.03;;;1.17;;
57832;SDS011;43667;53.036;6.740;2023-06-04T10:43:42;3.38;;;1.20;;
57832;SDS011;43667;53.036;6.740;2023-06-04T10:48:50;3.95;;;1.10;;
57832;SDS011;43667;53.036;6.740;2023-06-04T10:51:33;5.47;;;1.42;;
57832;SDS011;43667;53.036;6.740;2023-06-04T10:54:00;6.07;;;3.47;;
57832;SDS011;43667;53.036;6.740;2023-06-04T10:56:27;5.03;;;2.08;;
57832;SDS011;43667;53.036;6.740;2023-06-04T10:58:53;5.10;;;1.50;;
57832;SDS011;43667;53.036;6.740;2023-06-04T11:01:25;4.40;;;1.88;;
57832;SDS011;43667;53.036;6.740;2023-06-04T11:03:56;3.92;;;1.15;;
57832;SDS011;43667;53.036;6.740;2023-06-04T11:06:22;3.22;;;1.33;;
57832;SDS011;43667;53.036;6.740;2023-06-04T11:09:01;5.00;;;1.25;;
57832;SDS011;43667;53.036;6.740;2023-06-04T11:11:28;5.30;;;1.70;;
57832;SDS011;43667;53.036;6.740;2023-06-04T11:13:54;5.78;;;2.00;;
57832;SDS011;43667;53.036;6.740;2023-06-04T11:16:20;5.32;;;1.30;;
57832;SDS011;43667;53.036;6.740;2023-06-04T11:18:55;2.80;;;1.00;;
57832;SDS011;43667;53.036;6.740;2023-06-04T11:21:22;4.95;;;1.65;;
57832;SDS011;43667;53.036;6.740;2023-06-04T11:23:48;5.05;;;1.20;;
57832;SDS011;43667;53.036;6.740;2023-06-04T11:26:19;3.85;;;1.13;;
57832;SDS011;43667;53.036;6.740;2023-06-04T11:28:48;4.38;;;1.25;;
57832;SDS011;43667;53.036;6.740;2023-06-04T11:31:14;3.67;;;1.23;;
57832;SDS011;43667;53.036;6.740;2023-06-04T11:33:47;5.70;;;1.25;;
57832;SDS011;43667;53.036;6.740;2023-06-04T11:36:23;2.88;;;1.10;;
57832;SDS011;43667;53.036;6.740;2023-06-04T11:38:53;8.20;;;1.83;;
57832;SDS011;43667;53.036;6.740;2023-06-04T11:41:27;3.22;;;1.10;;
57832;SDS011;43667;53.036;6.740;2023-06-04T11:43:55;3.00;;;1.15;;
57832;SDS011;43667;53.036;6.740;2023-06-04T11:46:21;4.70;;;1.40;;
57832;SDS011;43667;53.036;6.740;2023-06-04T11:48:47;4.18;;;1.25;;
57832;SDS011;43667;53.036;6.740;2023-06-04T11:51:15;2.88;;;0.98;;
57832;SDS011;43667;53.036;6.740;2023-06-04T11:53:41;5.40;;;1.30;;
57832;SDS011;43667;53.036;6.740;2023-06-04T11:56:06;6.78;;;1.48;;
57832;SDS011;43667;53.036;6.740;2023-06-04T11:58:32;3.67;;;1.10;;
57832;SDS011;43667;53.036;6.740;2023-06-04T12:00:59;3.35;;;1.17;;
57832;SDS011;43667;53.036;6.740;2023-06-04T12:03:33;5.00;;;1.48;;
57832;SDS011;43667;53.036;6.740;2023-06-04T12:06:17;2.25;;;1.20;;
57832;SDS011;43667;53.036;6.740;2023-06-04T12:14:38;7.13;;;1.50;;
57832;SDS011;43667;53.036;6.740;2023-06-04T12:16:55;4.05;;;1.80;;
57832;SDS011;43667;53.036;6.740;2023-06-04T12:19:22;2.58;;;1.25;;
57832;SDS011;43667;53.036;6.740;2023-06-04T12:21:58;6.15;;;1.35;;
57832;SDS011;43667;53.036;6.740;2023-06-04T12:24:28;6.50;;;1.73;;
57832;SDS011;43667;53.036;6.740;2023-06-04T12:27:05;4.15;;;1.10;;
57832;SDS011;43667;53.036;6.740;2023-06-04T12:29:33;6.22;;;1.75;;
57832;SDS011;43667;53.036;6.740;2023-06-04T12:32:06;3.30;;;1.20;;
57832;SDS011;43667;53.036;6.740;2023-06-04T12:34:33;3.75;;;1.25;;
57832;SDS011;43667;53.036;6.740;2023-06-04T12:37:00;4.32;;;1.42;;
57832;SDS011;43667;53.036;6.740;2023-06-04T12:39:28;3.78;;;1.30;;
57832;SDS011;43667;53.036;6.740;2023-06-04T12:41:54;3.70;;;1.52;;
57832;SDS011;43667;53.036;6.740;2023-06-04T12:44:20;6.35;;;1.73;;
57832;SDS011;43667;53.036;6.740;2023-06-04T12:46:46;6.15;;;1.55;;
57832;SDS011;43667;53.036;6.740;2023-06-04T12:49:12;6.43;;;1.60;;
57832;SDS011;43667;53.036;6.740;2023-06-04T12:51:39;3.70;;;1.35;;
57832;SDS011;43667;53.036;6.740;2023-06-04T12:54:04;7.78;;;1.58;;
57832;SDS011;43667;53.036;6.740;2023-06-04T12:56:30;5.93;;;1.50;;
57832;SDS011;43667;53.036;6.740;2023-06-04T12:58:56;4.85;;;1.50;;
57832;SDS011;43667;53.036;6.740;2023-06-04T13:01:22;6.00;;;1.38;;
57832;SDS011;43667;53.036;6.740;2023-06-04T13:03:47;4.70;;;1.30;;
57832;SDS011;43667;53.036;6.740;2023-06-04T13:06:13;4.97;;;1.42;;
57832;SDS011;43667;53.036;6.740;2023-06-04T13:08:40;6.00;;;1.20;;
57832;SDS011;43667;53.036;6.740;2023-06-04T13:11:06;6.70;;;1.65;;
57832;SDS011;43667;53.036;6.740;2023-06-04T13:13:33;5.85;;;1.60;;
57832;SDS011;43667;53.036;6.740;2023-06-04T13:15:58;5.00;;;1.20;;
57832;SDS011;43667;53.036;6.740;2023-06-04T13:18:24;4.43;;;1.30;;
57832;SDS011;43667;53.036;6.740;2023-06-04T13:20:50;5.43;;;1.60;;
57832;SDS011;43667;53.036;6.740;2023-06-04T13:23:15;3.22;;;1.40;;
57832;SDS011;43667;53.036;6.740;2023-06-04T13:25:42;5.85;;;0.88;;
57832;SDS011;43667;53.036;6.740;2023-06-04T13:28:07;3.85;;;1.30;;
57832;SDS011;43667;53.036;6.740;2023-06-04T13:30:36;2.63;;;1.30;;
57832;SDS011;43667;53.036;6.740;2023-06-04T13:33:03;5.28;;;1.15;;
57832;SDS011;43667;53.036;6.740;2023-06-04T13:35:32;4.85;;;1.45;;
57832;SDS011;43667;53.036;6.740;2023-06-04T13:37:57;3.92;;;1.30;;
57832;SDS011;43667;53.036;6.740;2023-06-04T13:40:23;3.45;;;1.60;;
57832;SDS011;43667;53.036;6.740;2023-06-04T13:42:49;5.40;;;1.05;;
57832;SDS011;43667;53.036;6.740;2023-06-04T13:45:15;2.95;;;1.10;;
57832;SDS011;43667;53.036;6.740;2023-06-04T13:47:42;4.00;;;1.38;;
57832;SDS011;43667;53.036;6.740;2023-06-04T13:50:08;4.75;;;1.27;;
57832;SDS011;43667;53.036;6.740;2023-06-04T13:52:34;3.65;;;1.48;;
57832;SDS011;43667;53.036;6.740;2023-06-04T13:55:00;5.50;;;1.48;;
57832;SDS011;43667;53.036;6.740;2023-06-04T13:57:25;7.10;;;1.17;;
57832;SDS011;43667;53.036;6.740;2023-06-04T13:59:52;13.18;;;1.60;;
57832;SDS011;43667;53.036;6.740;2023-06-04T14:02:18;6.60;;;1.10;;
57832;SDS011;43667;53.036;6.740;2023-06-04T14:04:44;6.95;;;1.77;;
57832;SDS011;43667;53.036;6.740;2023-06-04T14:07:10;3.90;;;1.30;;
57832;SDS011;43667;53.036;6.740;2023-06-04T14:09:35;6.28;;;1.70;;
57832;SDS011;43667;53.036;6.740;2023-06-04T14:12:01;6.55;;;1.25;;
57832;SDS011;43667;53.036;6.740;2023-06-04T14:14:28;3.63;;;1.13;;
57832;SDS011;43667;53.036;6.740;2023-06-04T14:17:01;7.35;;;1.17;;
57832;SDS011;43667;53.036;6.740;2023-06-04T14:19:27;6.10;;;1.20;;
57832;SDS011;43667;53.036;6.740;2023-06-04T14:21:53;5.13;;;1.10;;
57832;SDS011;43667;53.036;6.740;2023-06-04T14:24:19;5.85;;;1.17;;
57832;SDS011;43667;53.036;6.740;2023-06-04T14:26:44;6.07;;;1.65;;
57832;SDS011;43667;53.036;6.740;2023-06-04T14:29:10;5.88;;;1.40;;
57832;SDS011;43667;53.036;6.740;2023-06-04T14:31:36;2.95;;;1.23;;
57832;SDS011;43667;53.036;6.740;2023-06-04T14:34:03;11.43;;;1.17;;
57832;SDS011;43667;53.036;6.740;2023-06-04T14:36:28;3.92;;;1.30;;
57832;SDS011;43667;53.036;6.740;2023-06-04T14:38:54;4.43;;;0.98;;
57832;SDS011;43667;53.036;6.740;2023-06-04T14:41:20;6.38;;;1.42;;
57832;SDS011;43667;53.036;6.740;2023-06-04T14:43:46;7.72;;;1.20;;
57832;SDS011;43667;53.036;6.740;2023-06-04T14:46:11;5.18;;;1.17;;
57832;SDS011;43667;53.036;6.740;2023-06-04T14:48:37;6.20;;;1.02;;
57832;SDS011;43667;53.036;6.740;2023-06-04T14:51:02;4.93;;;1.60;;
57832;SDS011;43667;53.036;6.740;2023-06-04T14:53:28;7.68;;;2.25;;
57832;SDS011;43667;53.036;6.740;2023-06-04T14:55:53;7.18;;;2.10;;